IE-0022 weather

Morriscastle Airstrip
Morriscastle, Ireland

Public forecast

Using degrees Celsius for public forecast. Weather courtesy of forecast.io.

METAR (pilot weather report)

Closest report is Waterford Airport, 36.2 nm (67.0 km) WSW. Retrieved 2019/06/18 10:30 UTC (0 seconds ago):

EIWF 181030Z 22008KT 190V250 CAVOK ///// Q1013

TAF (pilot weather forecast)

Closest forecast is Dublin Airport, 54.3 nm (100.6 km) N. Retrieved 2019/06/18 06:11 UTC (4 hours ago):

TAF EIDW 180500Z 1806/1906 24007KT 9999 FEW025 SCT040 TEMPO 1806/1808 VRB03KT BECMG 1811/1813 14012KT BECMG 1818/1820 14005KT BECMG 1821/1823 30007KT